EXS39T EGNV-EGNT
Flight info
| Callsign | EXS39T |
|---|---|
| Flight time | 0h 18m |
| Altitude | 12000 |
| Route | ETSES ETSES1K |
| Aircraft | B738/M-SDE2E3FGHIRWXY/LB1 |
Departure
| Time | 2026-05-08 19:48 |
|---|---|
| Airport | Teesside International Airport (EGNV) |
Arrival
| Time | 2026-05-08 20:06 |
|---|---|
| Airport | Newcastle International Airport (EGNT) |
| Time | Latitude | Longitude | Altitude | Speed | Heading |
|---|---|---|---|---|---|
| 2026-05-08 19:45 | 54.51596 | -1.41674 | 126 ft | 0 kts | 227° |
| 2026-05-08 19:47 | 54.51595 | -1.41677 | 126 ft | 4 kts | 227° |
| 2026-05-08 19:47 | 54.51476 | -1.41901 | 125 ft | 58 kts | 227° |
| 2026-05-08 19:47 | 54.51021 | -1.42750 | 124 ft | 132 kts | 227° |
| 2026-05-08 19:47 | 54.50328 | -1.44128 | 456 ft | 161 kts | 230° |
| 2026-05-08 19:48 | 54.49570 | -1.45628 | 1220 ft | 170 kts | 228° |
| 2026-05-08 19:48 | 54.48788 | -1.47137 | 2034 ft | 177 kts | 227° |
| 2026-05-08 19:48 | 54.47892 | -1.48853 | 2369 ft | 207 kts | 227° |
| 2026-05-08 19:48 | 54.46869 | -1.50805 | 2690 ft | 228 kts | 227° |
| 2026-05-08 19:49 | 54.45824 | -1.52902 | 3309 ft | 233 kts | 234° |
| 2026-05-08 19:49 | 54.45355 | -1.55551 | 3966 ft | 240 kts | 272° |
| 2026-05-08 19:49 | 54.45970 | -1.58317 | 4471 ft | 261 kts | 308° |
| 2026-05-08 19:49 | 54.47430 | -1.60249 | 5258 ft | 269 kts | 330° |
| 2026-05-08 19:50 | 54.49201 | -1.61368 | 6115 ft | 274 kts | 345° |
| 2026-05-08 19:50 | 54.51084 | -1.62060 | 6966 ft | 278 kts | 348° |
| 2026-05-08 19:50 | 54.52997 | -1.62692 | 7685 ft | 282 kts | 348° |
| 2026-05-08 19:50 | 54.54940 | -1.63353 | 8076 ft | 285 kts | 347° |
| 2026-05-08 19:51 | 54.56891 | -1.64048 | 8133 ft | 287 kts | 347° |
| 2026-05-08 19:51 | 54.58816 | -1.64761 | 8128 ft | 286 kts | 346° |
| 2026-05-08 19:51 | 54.60753 | -1.65495 | 8141 ft | 285 kts | 346° |
| 2026-05-08 19:51 | 54.62691 | -1.66241 | 8137 ft | 285 kts | 346° |
| 2026-05-08 19:52 | 54.64625 | -1.66991 | 8140 ft | 285 kts | 346° |
| 2026-05-08 19:52 | 54.66523 | -1.67790 | 8118 ft | 275 kts | 339° |
| 2026-05-08 19:52 | 54.68208 | -1.69120 | 8141 ft | 260 kts | 331° |
| 2026-05-08 19:52 | 54.69782 | -1.70542 | 8127 ft | 250 kts | 330° |
| 2026-05-08 19:53 | 54.71310 | -1.71941 | 8151 ft | 247 kts | 330° |
| 2026-05-08 19:53 | 54.72827 | -1.73337 | 8154 ft | 247 kts | 330° |
| 2026-05-08 19:53 | 54.74345 | -1.74737 | 8168 ft | 247 kts | 330° |
| 2026-05-08 19:53 | 54.75960 | -1.75751 | 8137 ft | 250 kts | 354° |
| 2026-05-08 19:54 | 54.77659 | -1.75290 | 8161 ft | 251 kts | 25° |
| 2026-05-08 19:54 | 54.78637 | -1.74232 | 8164 ft | 250 kts | 37° |
| 2026-05-08 19:54 | 54.80001 | -1.72334 | 8158 ft | 252 kts | 39° |
| 2026-05-08 19:54 | 54.81350 | -1.70386 | 8164 ft | 252 kts | 40° |
| 2026-05-08 19:55 | 54.82694 | -1.68431 | 8158 ft | 254 kts | 40° |
| 2026-05-08 19:55 | 54.84047 | -1.66458 | 8155 ft | 255 kts | 40° |
| 2026-05-08 19:55 | 54.85403 | -1.64476 | 8138 ft | 254 kts | 40° |
| 2026-05-08 19:55 | 54.86749 | -1.62507 | 7980 ft | 251 kts | 40° |
| 2026-05-08 19:56 | 54.88083 | -1.60560 | 7673 ft | 252 kts | 40° |
| 2026-05-08 19:56 | 54.89430 | -1.58605 | 7414 ft | 251 kts | 40° |
| 2026-05-08 19:56 | 54.90756 | -1.56686 | 7186 ft | 250 kts | 40° |
| 2026-05-08 19:56 | 54.92088 | -1.54764 | 6948 ft | 249 kts | 40° |
| 2026-05-08 19:57 | 54.93423 | -1.52844 | 6706 ft | 248 kts | 40° |
| 2026-05-08 19:57 | 54.94751 | -1.50937 | 6467 ft | 247 kts | 40° |
| 2026-05-08 19:57 | 54.96072 | -1.49044 | 6218 ft | 245 kts | 40° |
| 2026-05-08 19:57 | 54.97387 | -1.47163 | 5978 ft | 244 kts | 40° |
| 2026-05-08 19:58 | 54.98697 | -1.45291 | 5721 ft | 243 kts | 40° |
| 2026-05-08 19:58 | 54.99998 | -1.43433 | 5484 ft | 242 kts | 40° |
| 2026-05-08 19:58 | 55.01288 | -1.41564 | 5247 ft | 240 kts | 40° |
| 2026-05-08 19:58 | 55.02565 | -1.39697 | 5006 ft | 239 kts | 40° |
| 2026-05-08 19:59 | 55.03823 | -1.37853 | 4893 ft | 232 kts | 40° |
| 2026-05-08 19:59 | 55.05036 | -1.36072 | 4812 ft | 223 kts | 40° |
| 2026-05-08 19:59 | 55.06286 | -1.34570 | 4719 ft | 215 kts | 19° |
| 2026-05-08 19:59 | 55.07714 | -1.34420 | 4639 ft | 203 kts | 345° |
| 2026-05-08 20:00 | 55.09027 | -1.35101 | 4546 ft | 192 kts | 341° |
| 2026-05-08 20:00 | 55.10280 | -1.35860 | 4193 ft | 190 kts | 333° |
| 2026-05-08 20:00 | 55.11195 | -1.37436 | 3756 ft | 188 kts | 288° |
| 2026-05-08 20:00 | 55.11133 | -1.39622 | 3456 ft | 179 kts | 246° |
| 2026-05-08 20:01 | 55.10699 | -1.41604 | 3218 ft | 173 kts | 250° |
| 2026-05-08 20:01 | 55.10290 | -1.43550 | 2862 ft | 173 kts | 250° |
| 2026-05-08 20:01 | 55.09892 | -1.45539 | 2706 ft | 167 kts | 251° |
| 2026-05-08 20:01 | 55.09511 | -1.47333 | 2674 ft | 148 kts | 247° |
| 2026-05-08 20:02 | 55.09117 | -1.48915 | 2617 ft | 141 kts | 245° |
| 2026-05-08 20:02 | 55.08721 | -1.50427 | 2429 ft | 134 kts | 245° |
| 2026-05-08 20:02 | 55.08332 | -1.51892 | 2248 ft | 133 kts | 245° |
| 2026-05-08 20:02 | 55.07941 | -1.53363 | 2061 ft | 135 kts | 245° |
| 2026-05-08 20:03 | 55.07545 | -1.54849 | 1886 ft | 134 kts | 245° |
| 2026-05-08 20:03 | 55.07151 | -1.56329 | 1701 ft | 134 kts | 245° |
| 2026-05-08 20:03 | 55.06762 | -1.57793 | 1509 ft | 132 kts | 245° |
| 2026-05-08 20:03 | 55.06378 | -1.59237 | 1336 ft | 131 kts | 244° |
| 2026-05-08 20:04 | 55.05993 | -1.60686 | 1154 ft | 132 kts | 245° |
| 2026-05-08 20:04 | 55.05609 | -1.62133 | 965 ft | 131 kts | 244° |
| 2026-05-08 20:04 | 55.05225 | -1.63575 | 763 ft | 133 kts | 244° |
| 2026-05-08 20:04 | 55.04826 | -1.65046 | 571 ft | 135 kts | 244° |
| 2026-05-08 20:05 | 55.04440 | -1.66535 | 395 ft | 135 kts | 244° |
| 2026-05-08 20:05 | 55.04049 | -1.68022 | 244 ft | 130 kts | 244° |
| 2026-05-08 20:05 | 55.03734 | -1.69206 | 255 ft | 59 kts | 245° |
| 2026-05-08 20:05 | 55.03555 | -1.69876 | 265 ft | 60 kts | 245° |
| 2026-05-08 20:06 | 55.03408 | -1.70428 | 263 ft | 21 kts | 245° |
| 2026-05-08 20:06 | 55.03452 | -1.70645 | 263 ft | 20 kts | 351° |
| 2026-05-08 20:06 | 55.03521 | -1.70642 | 263 ft | 7 kts | 2° |
| 2026-05-08 20:06 | 55.03586 | -1.70619 | 263 ft | 8 kts | 51° |
| 2026-05-08 20:07 | 55.03597 | -1.70512 | 263 ft | 10 kts | 73° |
| 2026-05-08 20:07 | 55.03652 | -1.70441 | 261 ft | 9 kts | 5° |
| 2026-05-08 20:07 | 55.03698 | -1.70479 | 263 ft | 7 kts | 287° |
| 2026-05-08 20:07 | 55.03699 | -1.70532 | 263 ft | 1 kts | 264° |
| 2026-05-08 20:08 | 55.03698 | -1.70546 | 263 ft | 1 kts | 264° |
| 2026-05-08 20:08 | 55.03698 | -1.70559 | 264 ft | 1 kts | 264° |
| 2026-05-08 20:08 | 55.03697 | -1.70565 | 264 ft | 0 kts | 264° |